Latest Weather Observations for Kingfish B

IDV60801

Issued at 3:02 am EDT Saturday 7 March 2015 (issued every 30 minutes, with the page automatically refreshed every 10 minutes)

About weather observations | Map of weather stations | Latest weather observations for VIC | Other Formats
Station Details ID: 400139 Name: KINGFISH B (PLATFORM) Lat: -38.60 Lon: 148.19 Height: 31.4 m
Data from the previous 72 hours. | See also: Recent months for locations in Victoria
Date/Time
EDT
Temp
°C
App
Temp
°C
Dew
Point
Rel
Hum
%
Delta-T
°C
Wind Press
QNH
hPa
Press
MSL
hPa
Rain
since 9 am
mm
Dir
 
Spd
km/h
Gust
km/h
Spd
kts
Gust
kts
07/03:00am 16.6 12.0 11.0 69 3.0 SW 26 33 14 18 1009.8 - -
07/02:50am 16.6 11.2 10.9 69 3.1 SW 30 35 16 19 1009.7 - -
07/02:30am 16.5 11.5 11.0 70 3.0 SW 28 35 15 19 1010.0 - -
07/02:20am 16.6 11.7 11.2 70 2.9 SW 28 35 15 19 1010.1 - -
07/02:10am 16.6 11.3 11.1 70 3.0 SW 30 37 16 20 1010.0 - -
07/02:00am 16.6 10.8 10.9 69 3.1 SW 32 39 17 21 1009.9 - -
07/01:50am 16.5 10.5 10.9 69 3.0 SW 33 41 18 22 1009.9 - -
07/01:40am 16.5 10.5 10.9 69 3.0 SW 33 39 18 21 1010.0 - -
07/01:30am 16.5 10.2 11.0 70 3.0 SW 35 43 19 23 1010.0 - -
07/01:20am 16.4 10.1 11.0 70 2.9 SW 35 41 19 22 1010.0 - -
07/01:10am 16.4 10.1 11.0 70 2.9 SW 35 41 19 22 1010.0 - -
07/01:00am 16.4 10.5 11.1 71 2.8 SW 33 41 18 22 1009.9 - -
07/12:50am 16.4 11.0 10.8 69 3.0 SW 30 39 16 21 1010.0 - -
07/12:40am 16.4 10.9 10.6 68 3.1 SW 30 37 16 20 1010.1 - -
07/12:30am 16.7 10.6 10.5 67 3.3 SW 33 43 18 23 1010.0 - -
07/12:20am 16.4 10.0 10.6 68 3.1 SW 35 44 19 24 1010.2 - -
07/12:10am 16.2 9.8 10.6 69 3.0 SW 35 41 19 22 1010.2 - -
07/12:00am 16.2 9.7 10.3 68 3.1 SW 35 43 19 23 1010.3 - -
 
Date/Time
EDT
Temp
°C
App
Temp
°C
Dew
Point
Rel
Hum
%
Delta-T
°C
Wind Press
QNH
hPa
Press
MSL
hPa
Rain
since 9 am
mm
Dir
 
Spd
km/h
Gust
km/h
Spd
kts
Gust
kts
06/11:50pm 16.2 9.3 10.2 67 3.2 SW 37 44 20 24 1009.8 - -
06/11:40pm 16.1 9.2 10.2 68 3.1 SW 37 44 20 24 1010.0 - -
06/11:30pm 16.2 10.0 10.2 67 3.2 SW 33 41 18 22 1010.3 - -
06/11:20pm 16.2 8.8 9.9 66 3.3 SW 39 46 21 25 1009.8 - -
06/11:10pm 16.3 9.0 10.3 67 3.2 SW 39 46 21 25 1010.0 - -
06/11:00pm 16.3 8.7 10.4 68 3.1 SW 41 50 22 27 1009.7 - -
06/10:50pm 16.3 9.0 10.3 67 3.2 SW 39 48 21 26 1009.8 - -
06/10:40pm 16.3 9.1 10.5 68 3.1 SW 39 46 21 25 1009.7 - -
06/10:30pm 16.4 10.1 11.0 70 2.9 SW 35 44 19 24 1010.1 - -
06/10:20pm 16.4 9.6 10.7 69 3.0 SW 37 46 20 25 1009.8 - -
06/10:10pm 16.4 9.2 10.4 67 3.2 SW 39 48 21 26 1009.8 - -
06/10:00pm 16.3 8.3 10.4 68 3.1 SW 43 50 23 27 1009.6 - -
06/09:50pm 16.3 9.1 10.4 68 3.1 SW 39 50 21 27 1009.5 - -
06/09:40pm 16.3 8.3 10.4 68 3.1 SW 43 52 23 28 1009.1 - -
06/09:30pm 16.3 8.3 10.5 68 3.1 SW 43 50 23 27 1009.2 - -
06/09:20pm 16.3 8.2 10.1 66 3.3 SW 43 52 23 28 1009.1 - -
06/09:10pm 16.3 7.6 10.0 66 3.3 SW 46 54 25 29 1009.0 - -
06/09:00pm 16.3 7.7 10.3 67 3.2 SW 46 56 25 30 1008.8 - -
06/08:50pm 16.4 7.8 10.4 67 3.2 SW 46 54 25 29 1008.8 - -
06/08:40pm 16.5 8.0 10.7 68 3.1 SSW 46 54 25 29 1008.6 - -
06/08:30pm 16.6 7.7 10.7 68 3.1 SW 48 57 26 31 1008.2 - -
06/08:20pm 16.6 7.4 10.8 68 3.1 SW 50 57 27 31 1007.8 - -
06/08:10pm 16.7 7.9 10.9 68 3.1 SW 48 57 26 31 1007.8 - -
06/08:00pm 16.7 7.1 10.7 67 3.2 SW 52 59 28 32 1007.8 - -
06/07:50pm 16.8 6.8 10.8 67 3.2 SW 54 61 29 33 1007.7 - -
06/07:40pm 16.9 7.4 11.1 68 3.1 SW 52 61 28 33 1007.6 - -
06/07:30pm 16.9 8.1 11.0 68 3.2 SW 48 57 26 31 1007.6 - -
06/07:20pm 17.0 7.4 10.9 67 3.3 SW 52 63 28 34 1007.4 - -
06/07:10pm 17.0 6.9 10.5 65 3.5 SW 54 67 29 36 1007.2 - -
06/07:00pm 17.0 6.9 10.4 65 3.5 SW 54 63 29 34 1007.2 - -
06/06:50pm 17.0 6.6 10.5 65 3.5 SW 56 65 30 35 1006.9 - -
06/06:40pm 17.0 6.0 10.6 66 3.4 SW 59 67 32 36 1006.3 - -
06/06:30pm 17.1 6.1 10.4 64 3.6 SW 59 70 32 38 1006.7 - -
06/06:20pm 17.1 6.5 10.6 65 3.5 SW 57 69 31 37 1006.9 - -
06/06:10pm 17.1 6.6 10.9 67 3.3 SW 57 70 31 38 1006.4 - -
06/06:00pm 17.1 6.3 11.1 68 3.2 SW 59 72 32 39 1005.8 - -
06/05:50pm 17.1 6.6 11.1 68 3.2 SW 57 72 31 39 1006.2 - -
06/05:40pm 17.1 6.6 11.0 67 3.3 SW 57 69 31 37 1006.4 - -
06/05:30pm 17.2 7.0 11.3 68 3.2 SW 56 67 30 36 1006.2 - -
06/05:20pm 17.2 6.8 11.2 68 3.2 SW 57 72 31 39 1005.7 - -
06/05:10pm 17.1 6.7 11.2 68 3.2 SW 57 70 31 38 1005.6 - -
06/05:00pm 17.1 6.6 11.0 67 3.3 SW 57 69 31 37 1005.6 - -
06/04:50pm 17.0 6.2 11.2 68 3.1 SW 59 70 32 38 1005.2 - -
06/04:40pm 17.1 7.3 11.4 69 3.1 SW 54 65 29 35 1005.4 - -
06/04:30pm 17.2 6.8 11.4 68 3.1 SW 57 70 31 38 1004.8 - -
06/04:20pm 17.2 6.1 11.6 69 3.1 SW 61 72 33 39 1004.7 - -
06/04:10pm 17.1 7.0 11.7 70 2.9 SW 56 69 30 37 1005.0 - -
06/04:00pm 17.2 6.1 11.7 70 3.0 SW 61 72 33 39 1004.5 - -
06/03:50pm 17.4 7.4 12.0 70 3.0 SW 56 76 30 41 1004.7 - -
06/03:40pm 17.6 8.5 12.5 72 2.8 SW 52 65 28 35 1005.0 - -
06/03:20pm 17.7 7.8 12.3 70 3.0 SW 56 69 30 37 1004.3 - -
06/03:10pm 17.8 7.9 12.4 70 3.0 SW 56 70 30 38 1004.4 - -
06/03:00pm 17.9 8.1 12.6 71 3.0 SW 56 69 30 37 1004.2 - -
06/02:50pm 17.8 7.8 12.8 72 2.8 SW 57 70 31 38 1004.1 - -
06/02:40pm 17.7 8.0 12.9 73 2.7 SW 56 65 30 35 1004.1 - -
06/02:30pm 18.0 8.3 13.1 73 2.8 SW 56 65 30 35 1004.4 - -
06/02:20pm 18.2 8.6 13.2 72 2.8 SW 56 69 30 37 1004.1 - -
06/02:10pm 18.1 7.9 13.1 72 2.8 SW 59 70 32 38 1003.8 - -
06/02:00pm 18.1 7.9 13.3 73 2.7 SW 59 76 32 41 1003.7 - -
06/01:50pm 18.0 7.8 13.2 73 2.7 SW 59 70 32 38 1003.7 - -
06/01:40pm 17.8 6.9 13.3 75 2.5 SW 63 76 34 41 1003.4 - -
06/01:30pm 18.2 6.9 13.4 73 2.7 SW 65 83 35 45 1003.6 - -
06/01:20pm 18.6 7.4 13.6 72 2.8 SW 65 80 35 43 1003.3 - -
06/01:10pm 18.5 8.6 14.0 75 2.6 SW 59 80 32 43 1003.3 - -
06/01:00pm 18.2 8.8 13.9 76 2.5 SW 56 69 30 37 1003.4 - -
06/12:50pm 17.9 7.1 13.6 76 2.4 SW 63 80 34 43 1003.0 - -
06/12:40pm 18.1 6.9 13.7 75 2.5 SW 65 83 35 45 1003.0 - -
06/12:30pm 18.0 8.1 14.0 77 2.3 SW 59 72 32 39 1003.1 - -
06/12:20pm 17.8 7.8 13.9 78 2.2 SW 59 74 32 40 1003.1 - -
06/12:10pm 17.8 6.8 14.1 79 2.1 SW 65 78 35 42 1002.7 - -
06/12:00pm 17.7 8.3 14.5 81 1.8 SW 57 72 31 39 1002.9 - -
06/11:50am 17.2 7.5 14.6 85 1.5 SW 59 70 32 38 1002.7 - -
06/11:40am 16.7 7.9 14.6 87 1.2 WSW 54 70 29 38 1002.8 - -
06/11:30am 16.0 7.1 14.2 89 1.0 WSW 54 69 29 37 1002.6 - -
06/11:20am 15.5 7.5 13.6 88 1.1 W 48 56 26 30 1003.0 - -
06/11:10am 15.3 7.6 13.4 88 1.1 W 46 56 25 30 1003.3 - -
06/11:00am 15.1 7.0 13.3 89 1.0 W 48 59 26 32 1003.1 - -
06/10:50am 14.9 6.7 13.0 88 1.0 W 48 63 26 34 1002.9 - -
06/10:40am 14.8 5.5 12.9 88 1.0 W 54 63 29 34 1002.8 - -
06/10:30am 14.9 5.6 12.9 88 1.1 W 54 65 29 35 1002.7 - -
06/10:20am 15.1 5.4 13.1 88 1.1 W 56 65 30 35 1002.2 - -
06/10:10am 15.0 5.1 13.0 88 1.1 W 57 69 31 37 1002.1 - -
06/10:00am 14.9 4.9 12.8 87 1.2 WSW 57 72 31 39 1002.3 - -
06/09:50am 14.8 5.8 12.7 87 1.2 W 52 65 28 35 1002.5 - -
06/09:40am 14.8 4.4 12.5 86 1.3 W 59 70 32 38 1002.3 - -
06/09:30am 14.7 4.8 12.4 86 1.3 W 56 65 30 35 1002.6 - -
06/09:20am 14.6 4.4 12.1 85 1.4 W 57 67 31 36 1002.7 - -
06/09:10am 14.9 4.9 12.2 84 1.5 W 56 70 30 38 1002.7 - -
06/09:00am 15.0 5.0 12.0 82 1.6 W 56 69 30 37 1002.7 - -
06/08:50am 15.1 5.0 11.8 81 1.8 W 56 67 30 36 1002.5 - -
06/08:40am 15.3 4.2 11.7 79 1.9 WSW 61 72 33 39 1002.1 - -
06/08:30am 15.4 5.1 11.6 78 2.0 W 57 74 31 40 1002.1 - -
06/08:20am 15.4 5.9 11.2 76 2.2 W 52 65 28 35 1002.4 - -
06/08:10am 15.7 4.5 11.2 74 2.4 WSW 61 78 33 42 1002.0 - -
06/07:50am 15.7 2.7 11.0 73 2.5 WSW 70 83 38 45 1001.7 - -
06/07:40am 15.7 3.3 11.0 73 2.5 WSW 67 83 36 45 1001.8 - -
06/07:30am 15.6 2.8 10.8 73 2.6 WSW 69 82 37 44 1001.6 - -
06/07:20am 15.6 2.7 10.7 72 2.6 WSW 69 83 37 45 1001.7 - -
06/07:10am 15.5 2.4 10.5 72 2.6 WSW 70 85 38 46 1001.7 - -
06/07:00am 15.6 1.7 10.5 71 2.7 WSW 74 89 40 48 1001.7 - -
06/06:50am 15.6 2.5 10.4 71 2.7 WSW 70 85 38 46 1001.9 - -
06/06:40am 15.6 3.0 10.4 71 2.7 WSW 67 85 36 46 1002.1 - -
06/06:30am 15.6 2.7 10.4 71 2.7 WSW 69 83 37 45 1002.1 - -
06/06:20am 15.4 1.8 10.2 71 2.7 WSW 72 91 39 49 1002.0 - -
06/06:10am 15.3 2.7 10.2 71 2.7 WSW 67 82 36 44 1002.3 - -
06/06:00am 15.4 2.4 10.2 71 2.7 WSW 69 83 37 45 1002.5 - -
06/05:50am 15.7 2.7 10.1 69 2.9 WSW 69 83 37 45 1002.5 - -
06/05:40am 16.1 4.2 9.9 66 3.2 WSW 63 78 34 42 1002.9 - -
06/05:30am 16.2 5.5 10.2 67 3.2 WSW 57 74 31 40 1003.2 - -
06/05:20am 16.1 4.6 10.0 67 3.2 WSW 61 76 33 41 1003.1 - -
06/05:10am 16.0 3.3 9.9 67 3.2 WSW 67 83 36 45 1003.0 - -
06/05:00am 16.0 4.1 10.0 67 3.1 WSW 63 74 34 40 1003.1 - -
06/04:50am 16.0 4.5 10.0 67 3.1 WSW 61 72 33 39 1003.3 - -
06/04:40am 16.0 4.0 9.8 66 3.2 WSW 63 76 34 41 1003.5 - -
06/04:30am 16.1 4.9 9.7 66 3.3 WSW 59 72 32 39 1003.9 - -
06/04:20am 16.0 3.5 9.4 65 3.4 WSW 65 76 35 41 1003.8 - -
06/04:10am 16.0 3.1 9.3 64 3.5 WSW 67 78 36 42 1003.9 - -
06/04:00am 16.1 4.4 9.4 64 3.5 WSW 61 78 33 42 1004.2 - -
06/03:50am 16.1 3.6 9.3 64 3.5 WSW 65 78 35 42 1004.3 - -
06/03:40am 16.1 4.4 9.4 64 3.5 WSW 61 74 33 40 1004.6 - -
06/03:30am 16.1 4.4 9.3 64 3.5 WSW 61 74 33 40 1004.8 - -
06/03:20am 16.1 4.7 9.1 63 3.6 WSW 59 74 32 40 1005.1 - -
06/03:10am 16.1 3.5 9.0 63 3.7 WSW 65 80 35 43 1005.1 - -
06/03:00am 16.1 4.7 9.2 63 3.6 WSW 59 72 32 39 1005.3 - -
06/02:50am 16.1 5.0 8.8 62 3.7 W 57 70 31 38 1005.6 - -
06/02:40am 16.1 5.1 9.0 63 3.7 WSW 57 69 31 37 1005.8 - -
06/02:30am 16.1 5.2 9.0 63 3.7 WSW 56 67 30 36 1006.1 - -
06/02:20am 16.1 3.9 8.8 62 3.7 WSW 63 78 34 42 1005.9 - -
06/02:10am 16.1 4.7 9.0 63 3.7 WSW 59 76 32 41 1006.2 - -
06/02:00am 16.2 4.4 9.0 62 3.7 WSW 61 76 33 41 1006.3 - -
06/01:50am 16.2 3.6 8.8 61 3.8 WSW 65 72 35 39 1006.6 - -
06/01:40am 16.3 4.9 9.0 62 3.8 WSW 59 74 32 40 1006.7 - -
06/01:30am 16.2 3.9 8.5 60 3.9 WSW 63 76 34 41 1006.6 - -
06/01:20am 16.1 4.2 8.7 61 3.8 WSW 61 74 33 40 1006.8 - -
06/01:10am 16.2 3.8 8.3 59 4.0 WSW 63 82 34 44 1006.9 - -
06/01:00am 16.1 3.7 8.1 59 4.0 WSW 63 72 34 39 1007.1 - -
06/12:50am 16.1 4.9 8.5 60 3.9 WSW 57 72 31 39 1007.2 - -
06/12:40am 16.2 3.9 8.6 60 3.9 WSW 63 74 34 40 1007.4 - -
06/12:30am 16.2 4.2 8.2 59 4.1 WSW 61 72 33 39 1007.4 - -
06/12:20am 16.3 4.3 8.2 58 4.1 WSW 61 76 33 41 1007.6 - -
06/12:10am 15.9 3.9 8.1 60 3.9 WSW 61 72 33 39 1007.9 - -
06/12:00am 15.8 4.6 8.3 61 3.8 WSW 57 69 31 37 1008.0 - -
 
Date/Time
EDT
Temp
°C
App
Temp
°C
Dew
Point
Rel
Hum
%
Delta-T
°C
Wind Press
QNH
hPa
Press
MSL
hPa
Rain
since 9 am
mm
Dir
 
Spd
km/h
Gust
km/h
Spd
kts
Gust
kts
05/11:50pm 15.7 4.6 8.8 63 3.5 WSW 57 69 31 37 1008.2 - -
05/11:40pm 15.7 4.7 9.3 65 3.3 WSW 57 67 31 36 1008.4 - -
05/11:30pm 15.5 5.1 9.2 66 3.2 WSW 54 69 29 37 1008.6 - -
05/11:20pm 15.4 4.0 8.9 65 3.3 WSW 59 70 32 38 1008.4 - -
05/11:10pm 15.3 5.7 9.5 68 3.0 WSW 50 69 27 37 1009.0 - -
05/11:00pm 15.6 5.2 9.4 66 3.2 WSW 54 69 29 37 1009.1 - -
05/10:50pm 16.1 6.4 9.0 63 3.7 WSW 50 67 27 36 1009.2 - -
05/10:40pm 16.1 6.3 8.5 60 3.9 WSW 50 65 27 35 1009.2 - -
05/10:30pm 16.1 6.3 8.6 61 3.8 WSW 50 61 27 33 1009.2 - -
05/10:20pm 16.2 6.8 8.7 61 3.8 WSW 48 61 26 33 1009.4 - -
05/10:10pm 16.1 5.7 7.8 58 4.2 SW 52 65 28 35 1009.3 - -
05/10:00pm 16.1 5.4 7.9 58 4.1 WSW 54 65 29 35 1009.3 - -
05/09:50pm 16.2 4.6 8.3 59 4.0 SW 59 72 32 39 1009.0 - -
05/09:40pm 16.1 5.1 8.5 60 3.9 SW 56 70 30 38 1009.1 - -
05/09:30pm 16.0 5.4 8.3 60 3.9 WSW 54 61 29 33 1009.3 - -
05/09:20pm 16.0 5.4 8.4 60 3.9 WSW 54 70 29 38 1009.4 - -
05/09:10pm 16.0 5.7 8.0 59 4.0 SW 52 65 28 35 1009.6 - -
05/09:00pm 16.0 5.9 7.2 56 4.4 SW 50 63 27 34 1009.9 - -
05/08:50pm 15.9 5.9 7.9 59 4.0 SW 50 63 27 34 1009.8 - -
05/08:40pm 15.8 6.2 7.9 59 4.0 SW 48 59 26 32 1009.8 - -
05/08:30pm 15.8 5.0 7.7 58 4.1 SW 54 61 29 33 1009.9 - -
05/08:20pm 15.8 6.7 8.6 62 3.7 SW 46 57 25 31 1010.3 - -
05/08:10pm 16.2 5.1 8.1 58 4.1 SW 56 72 30 39 1010.1 - -
05/08:00pm 16.2 5.4 7.8 57 4.2 SW 54 69 29 37 1010.2 - -
05/07:50pm 16.2 5.6 7.0 54 4.6 SW 52 65 28 35 1010.2 - -
05/07:40pm 16.3 5.6 6.6 52 4.8 SW 52 65 28 35 1010.2 - -
05/07:30pm 16.4 5.7 6.5 52 4.9 SW 52 61 28 33 1010.3 - -
05/07:20pm 16.4 5.6 6.2 51 5.0 SW 52 61 28 33 1010.4 - -
05/07:10pm 16.2 5.0 5.7 49 5.1 SW 54 65 29 35 1010.5 - -
05/07:00pm 16.3 5.0 5.4 48 5.2 SW 54 65 29 35 1010.4 - -
05/06:50pm 16.2 4.6 6.0 51 4.9 SW 56 67 30 36 1010.4 - -
05/06:40pm 16.2 4.6 6.7 53 4.7 SW 57 69 31 37 1010.3 - -
05/06:30pm 16.1 4.8 7.0 54 4.5 SW 56 69 30 37 1010.3 - -
05/06:20pm 16.2 4.2 6.7 53 4.7 SW 59 69 32 37 1010.4 - -
05/06:10pm 16.2 5.3 7.2 55 4.5 SW 54 65 29 35 1010.5 - -
05/06:00pm 16.1 4.4 6.4 52 4.7 SW 57 67 31 36 1010.6 - -
05/05:30pm 16.0 3.5 5.8 50 4.9 SW 61 74 33 40 1010.4 - -
05/05:20pm 16.2 4.7 6.3 52 4.8 SW 56 70 30 38 1010.7 - -
05/05:10pm 16.3 5.4 7.2 55 4.5 SW 54 65 29 35 1010.8 - -
05/05:00pm 16.2 4.9 7.1 55 4.5 SW 56 69 30 37 1010.8 - -
05/04:50pm 16.2 4.7 6.9 54 4.6 SW 57 69 31 37 1011.0 - -
05/04:40pm 16.3 5.1 7.5 56 4.4 SW 56 69 30 37 1011.0 - -
05/04:30pm 16.1 5.2 7.2 55 4.4 SW 54 63 29 34 1011.1 - -
05/04:20pm 16.0 4.4 6.6 53 4.6 SW 57 70 31 38 1011.2 - -
05/04:10pm 16.0 5.8 7.0 55 4.4 SW 50 63 27 34 1011.5 - -
05/04:00pm 15.9 3.6 5.3 49 5.1 SW 59 74 32 40 1011.5 - -
05/03:50pm 15.9 4.2 6.2 52 4.7 SW 57 70 31 38 1011.4 - -
05/03:40pm 15.9 5.1 6.2 52 4.7 SW 52 67 28 36 1011.9 - -
05/03:30pm 16.0 3.5 5.8 50 4.9 SW 61 70 33 38 1011.6 - -
05/03:20pm 15.9 4.2 6.1 52 4.7 SW 57 74 31 40 1011.5 - -
05/03:10pm 16.0 5.0 6.8 54 4.5 SW 54 69 29 37 1011.9 - -
05/03:00pm 16.0 5.0 6.7 54 4.6 SW 54 63 29 34 1012.1 - -
05/02:50pm 15.9 5.2 6.6 54 4.6 SW 52 63 28 34 1011.9 - -
05/02:40pm 16.0 4.5 6.3 52 4.7 SW 56 65 30 35 1012.0 - -
05/02:30pm 16.2 4.7 6.3 52 4.8 SW 56 67 30 36 1012.1 - -
05/02:20pm 16.3 4.7 5.9 50 5.0 SW 56 69 30 37 1011.6 - -
05/02:10pm 16.3 3.2 5.2 47 5.3 SW 63 72 34 39 1011.6 - -
05/02:00pm 16.2 3.2 5.6 49 5.1 SW 63 72 34 39 1012.0 - -
05/01:50pm 16.3 4.2 6.1 51 5.0 SW 59 74 32 40 1012.3 - -
05/01:40pm 16.4 3.6 6.3 51 4.9 SW 63 78 34 42 1012.0 - -
05/01:30pm 16.5 4.1 6.4 51 4.9 SW 61 74 33 40 1011.8 - -
05/01:20pm 16.3 3.1 6.1 51 5.0 SW 65 76 35 41 1012.3 - -
05/01:10pm 16.3 4.7 6.6 52 4.8 SW 57 70 31 38 1012.1 - -
05/01:00pm 16.1 3.0 5.2 48 5.2 SW 63 76 34 41 1011.9 - -
05/12:50pm 15.8 2.0 5.3 49 5.0 SW 67 78 36 42 1011.3 - -
05/12:40pm 16.1 3.4 7.0 54 4.5 SW 63 82 34 44 1012.0 - -
05/12:30pm 15.3 2.5 6.3 55 4.4 SSW 63 83 34 45 1012.8 - -
05/12:20pm 16.6 2.4 5.1 46 5.5 SSW 69 85 37 46 1012.2 - -
05/12:10pm 16.6 2.1 4.7 45 5.6 SW 70 83 38 45 1011.6 - -
05/12:00pm 16.5 1.4 5.2 47 5.4 SW 74 87 40 47 1011.5 - -
05/11:50am 16.5 3.2 5.7 49 5.2 SW 65 80 35 43 1011.1 - -
05/11:40am 15.9 3.0 5.7 50 4.9 SW 63 83 34 45 1010.3 - -
05/11:30am 15.8 2.3 6.8 55 4.4 SW 67 85 36 46 1009.7 - -
05/11:20am 16.8 4.7 7.7 55 4.6 SW 61 91 33 49 1009.9 - -
05/11:10am 16.7 4.8 7.0 52 4.8 SW 59 72 32 39 1009.4 - -
05/11:00am 16.8 4.4 6.4 50 5.1 SW 61 78 33 42 1009.6 - -
05/10:40am 16.7 3.5 6.3 50 5.1 SW 65 80 35 43 1009.5 - -
05/10:30am 16.7 3.4 6.0 49 5.2 SW 65 74 35 40 1008.9 - -
05/10:20am 16.3 3.5 6.6 52 4.8 SW 63 80 34 43 1009.5 - -
05/10:10am 15.7 3.3 6.4 54 4.5 SW 61 74 33 40 1009.1 - -
05/10:00am 16.4 1.8 5.8 49 5.1 SW 72 87 39 47 1008.5 - -
05/09:50am 16.6 2.6 6.0 49 5.2 SW 69 85 37 46 1008.5 - -
05/09:40am 16.3 2.2 5.5 48 5.2 SW 69 83 37 45 1008.1 - -
05/09:30am 15.9 2.8 6.6 54 4.6 SW 65 80 35 43 1008.5 - -
05/09:20am 16.0 3.2 6.5 53 4.6 SW 63 80 34 43 1008.2 - -
05/09:10am 15.6 1.0 5.8 52 4.7 SW 72 89 39 48 1008.2 - -
05/09:00am 15.0 0.9 6.5 57 4.1 SW 70 85 38 46 1007.9 - -
05/08:50am 14.3 0.1 6.1 58 3.9 SW 70 100 38 54 1008.2 - -
05/08:40am 14.5 0.3 7.6 63 3.4 SW 72 96 39 52 1008.6 - -
05/08:30am 14.6 0.6 7.0 60 3.7 SW 70 98 38 53 1007.9 - -
05/08:20am 15.3 -1.0 6.7 56 4.2 SW 82 95 44 51 1006.0 - -
05/08:10am 15.2 -1.0 7.2 59 3.9 SW 82 95 44 51 1005.6 - -
05/08:00am 15.3 0.0 8.0 61 3.7 SW 78 95 42 51 1005.2 - -
05/07:50am 15.1 -0.5 8.1 63 3.5 SW 80 102 43 55 1004.8 - -
05/07:40am 15.0 -0.9 8.4 64 3.3 SW 82 98 44 53 1004.8 - -
05/07:30am 15.1 -0.5 8.2 63 3.5 SW 80 102 43 55 1004.7 - -
05/07:20am 14.7 -1.2 8.5 66 3.1 SW 82 98 44 53 1003.8 - -
05/07:10am 14.3 0.9 9.5 73 2.5 SW 70 91 38 49 1004.3 - -
05/07:00am 14.2 -2.2 8.8 70 2.7 SW 85 107 46 58 1004.4 - -
05/06:50am 15.2 -0.1 9.5 69 2.9 SW 80 109 43 59 1004.3 - -
05/06:40am 14.9 -0.6 10.2 73 2.5 SW 82 96 44 52 1002.9 - -
05/06:30am 14.8 0.3 10.9 77 2.1 SW 78 91 42 49 1003.1 - -
05/06:20am 14.9 0.9 11.4 79 1.9 SW 76 98 41 53 1003.2 - -
05/06:10am 14.7 -1.0 11.4 80 1.8 SW 85 104 46 56 1002.7 - -
05/06:00am 15.2 0.1 12.1 82 1.7 SW 83 100 45 54 1002.0 - -
05/05:50am 16.4 3.7 13.2 81 1.8 SW 72 95 39 51 1002.3 - -
05/05:40am 16.2 4.5 13.2 82 1.7 WSW 67 83 36 45 1002.2 - -
05/05:30am 16.5 4.5 13.5 82 1.7 WSW 69 83 37 45 1002.2 - -
05/05:20am 16.6 6.8 13.3 81 1.9 WSW 57 70 31 38 1002.4 - -
05/05:10am 16.8 6.2 13.0 78 2.1 SW 61 74 33 40 1002.3 - -
05/05:00am 17.4 5.5 12.7 74 2.6 SW 67 80 36 43 1002.3 - -
05/04:50am 19.0 7.8 12.4 65 3.7 WSW 63 83 34 45 1002.3 - -
05/04:40am 19.2 9.2 12.5 65 3.8 WSW 57 69 31 37 1002.4 - -
05/04:30am 19.2 9.3 12.5 65 3.8 WSW 56 67 30 36 1002.3 - -
05/04:20am 19.1 11.0 13.1 68 3.4 W 48 65 26 35 1002.5 - -
05/04:10am 18.9 12.5 13.2 69 3.2 W 39 56 21 30 1003.0 - -
05/04:00am 18.9 13.3 13.3 70 3.2 W 35 44 19 24 1003.3 - -
05/03:50am 19.0 13.9 13.1 68 3.3 W 32 39 17 21 1003.5 - -
05/03:40am 19.0 13.8 12.9 67 3.4 W 32 37 17 20 1003.7 - -
05/03:30am 19.0 14.6 13.0 68 3.4 WNW 28 37 15 20 1003.8 - -
05/03:20am 18.9 14.6 13.1 69 3.3 WNW 28 37 15 20 1004.0 - -
05/03:10am 18.8 14.1 13.2 70 3.2 WNW 30 39 16 21 1004.1 - -
05/03:00am 18.7 14.1 13.5 72 3.0 WNW 30 41 16 22 1004.4 - -
05/02:40am 18.5 15.2 14.1 75 2.5 NW 24 30 13 16 1004.9 - -
05/02:30am 18.5 14.9 14.1 75 2.5 NW 26 32 14 17 1005.0 - -
05/02:20am 18.4 14.4 14.0 75 2.5 NW 28 33 15 18 1005.1 - -
05/02:10am 18.3 13.9 14.0 76 2.5 NW 30 37 16 20 1005.2 - -
05/02:00am 18.3 14.3 14.0 76 2.5 NNW 28 32 15 17 1005.3 - -
05/01:50am 18.3 14.3 14.0 76 2.5 NNW 28 32 15 17 1005.4 - -
05/01:40am 18.4 13.9 13.9 75 2.6 NNW 30 32 16 17 1005.5 - -
05/01:30am 18.4 13.9 13.8 74 2.6 NNW 30 32 16 17 1005.6 - -
05/01:20am 18.5 14.4 13.8 74 2.7 NNW 28 32 15 17 1005.8 - -
05/01:10am 18.6 14.5 13.9 74 2.7 NNW 28 32 15 17 1006.0 - -
05/01:00am 18.8 14.4 14.1 74 2.7 NNW 30 32 16 17 1006.2 - -
05/12:50am 18.9 14.9 14.0 73 2.8 NNW 28 30 15 16 1006.4 - -
05/12:40am 19.1 15.5 14.1 73 2.9 NNW 26 32 14 17 1006.4 - -
05/12:30am 19.4 16.6 14.2 72 3.0 NNW 22 26 12 14 1006.6 - -
05/12:20am 19.3 17.3 13.8 70 3.2 WNW 17 28 9 15 1006.7 - -
05/12:10am 19.2 15.7 13.5 69 3.3 WSW 24 30 13 16 1006.7 - -
05/12:00am 19.1 14.8 13.3 69 3.3 WSW 28 32 15 17 1006.8 - -
 
Date/Time
EDT
Temp
°C
App
Temp
°C
Dew
Point
Rel
Hum
%
Delta-T
°C
Wind Press
QNH
hPa
Press
MSL
hPa
Rain
since 9 am
mm
Dir
 
Spd
km/h
Gust
km/h
Spd
kts
Gust
kts
04/11:50pm 18.9 14.7 13.4 70 3.1 WSW 28 35 15 19 1006.9 - -
04/11:40pm 19.1 15.6 13.5 70 3.2 WSW 24 32 13 17 1007.1 - -
04/11:30pm 18.9 14.8 12.8 67 3.4 WSW 26 30 14 16 1007.4 - -
04/11:20pm 18.9 15.2 12.6 67 3.5 WSW 24 30 13 16 1007.5 - -
04/11:10pm 18.9 15.6 12.7 67 3.5 WSW 22 30 12 16 1007.5 - -
04/11:00pm 18.9 15.6 12.7 67 3.5 WSW 22 28 12 15 1007.5 - -
04/10:40pm 18.9 15.1 12.5 66 3.6 SW 24 28 13 15 1007.5 - -
04/10:30pm 18.9 14.8 12.7 67 3.5 SW 26 33 14 18 1007.6 - -
04/10:20pm 19.0 15.8 13.0 68 3.4 SW 22 28 12 15 1007.7 - -
04/10:10pm 19.0 15.4 13.1 68 3.3 SW 24 30 13 16 1007.7 - -
04/10:00pm 19.1 15.1 13.0 67 3.4 SW 26 30 14 16 1007.7 - -
04/09:50pm 19.1 14.6 12.7 66 3.6 SW 28 35 15 19 1007.7 - -
04/09:40pm 19.1 14.3 12.8 67 3.5 SW 30 37 16 20 1007.6 - -
04/09:30pm 19.1 13.7 12.8 67 3.5 SW 33 41 18 22 1007.6 - -
04/09:20pm 19.1 13.7 12.8 67 3.5 SW 33 41 18 22 1007.6 - -
04/09:10pm 19.1 13.8 12.6 66 3.6 SW 32 41 17 22 1007.6 - -
04/09:00pm 19.1 13.3 12.7 66 3.6 SW 35 41 19 22 1007.7 - -
04/08:50pm 19.2 13.7 12.3 64 3.9 SW 33 41 18 22 1007.9 - -
04/08:40pm 19.2 13.7 12.4 64 3.8 SW 33 43 18 23 1008.0 - -
04/08:30pm 19.3 13.5 12.8 66 3.7 SW 35 41 19 22 1008.1 - -
04/08:20pm 19.5 12.9 12.5 64 3.9 SW 39 46 21 25 1007.9 - -
04/08:10pm 19.5 13.7 12.6 64 3.9 SW 35 44 19 24 1007.9 - -
04/08:00pm 19.4 13.9 12.5 64 3.9 SW 33 39 18 21 1008.2 - -
04/07:50pm 19.4 13.5 12.4 64 3.9 SW 35 44 19 24 1008.1 - -
04/07:40pm 19.4 13.2 12.5 64 3.9 SW 37 43 20 23 1008.2 - -
04/07:30pm 19.5 13.7 12.7 65 3.8 SW 35 44 19 24 1008.6 - -
04/07:20pm 19.6 13.4 12.5 63 4.0 SW 37 43 20 23 1008.5 - -
04/07:10pm 19.8 13.9 12.4 62 4.1 SW 35 41 19 22 1008.5 - -
04/07:00pm 19.8 13.7 11.8 60 4.4 SW 35 44 19 24 1008.3 - -
04/06:50pm 19.7 14.1 12.1 61 4.2 SW 33 39 18 21 1008.4 - -
04/06:40pm 19.6 15.0 12.2 62 4.1 SW 28 39 15 21 1008.5 - -
04/06:30pm 19.6 15.3 12.0 61 4.2 SW 26 33 14 18 1008.5 - -
04/06:20pm 19.5 15.1 11.6 60 4.4 SW 26 32 14 17 1008.5 - -
04/06:10pm 19.5 15.9 11.9 61 4.2 SW 22 30 12 16 1008.6 - -
04/06:00pm 19.4 15.8 12.0 62 4.1 SW 22 28 12 15 1008.8 - -
04/05:50pm 19.5 15.7 12.5 64 3.9 SW 24 28 13 15 1008.9 - -
04/05:40pm 19.6 15.9 12.6 64 3.9 SW 24 28 13 15 1009.0 - -
04/05:30pm 19.5 15.7 12.3 63 4.0 SW 24 28 13 15 1009.1 - -
04/05:20pm 19.4 16.4 12.1 62 4.1 SW 19 26 10 14 1009.1 - -
04/05:10pm 19.3 16.7 12.1 63 4.0 SW 17 22 9 12 1009.2 - -
04/05:00pm 19.2 16.2 12.1 63 3.9 SW 19 22 10 12 1009.3 - -
04/04:50pm 19.1 16.9 12.1 64 3.9 SW 15 19 8 10 1009.5 - -
04/04:40pm 19.1 16.9 12.0 63 3.9 SW 15 19 8 10 1009.7 - -
04/04:30pm 19.2 16.9 11.8 62 4.1 SW 15 20 8 11 1009.9 - -
04/04:20pm 19.2 16.3 11.1 59 4.4 SW 17 20 9 11 1010.0 - -
04/04:10pm 19.3 16.5 11.3 60 4.4 SW 17 20 9 11 1010.2 - -
04/04:00pm 19.3 16.5 11.3 60 4.4 WSW 17 20 9 11 1010.4 - -
04/03:50pm 19.4 16.6 11.3 59 4.4 WSW 17 22 9 12 1010.6 - -
04/03:40pm 19.4 16.0 11.4 60 4.4 WSW 20 22 11 12 1010.7 - -
04/03:30pm 19.4 16.2 11.2 59 4.5 WSW 19 24 10 13 1010.8 - -
04/03:20pm 19.3 16.1 11.4 60 4.3 WSW 19 22 10 12 1011.0 - -
04/03:10pm 19.3 16.6 11.7 61 4.2 WSW 17 22 9 12 1011.1 - -
04/03:00pm 19.3 16.1 11.4 60 4.3 W 19 22 10 12 1011.1 - -
04/02:50pm 19.4 16.3 11.5 60 4.3 W 19 24 10 13 1011.3 - -
04/02:40pm 19.4 16.0 11.2 59 4.5 W 20 24 11 13 1011.5 - -
04/02:30pm 19.4 15.9 10.9 58 4.6 W 20 24 11 13 1011.6 - -
04/02:20pm 19.5 15.7 11.0 58 4.6 W 22 28 12 15 1011.7 - -
04/02:10pm 19.5 15.3 11.0 58 4.6 WSW 24 28 13 15 1011.8 - -
04/02:00pm 19.5 15.7 11.1 58 4.6 WSW 22 30 12 16 1012.0 - -
04/01:50pm 19.6 15.7 10.9 57 4.7 WSW 22 28 12 15 1012.2 - -
04/01:40pm 19.6 15.3 10.6 56 4.9 WSW 24 30 13 16 1012.3 - -
04/01:30pm 19.8 15.1 10.7 55 4.9 WSW 26 32 14 17 1012.4 - -
04/01:20pm 19.9 14.8 10.7 55 5.0 WSW 28 35 15 19 1012.4 - -
04/01:10pm 20.0 15.1 11.3 57 4.8 WSW 28 35 15 19 1012.7 - -
04/01:00pm 20.0 16.0 11.9 59 4.5 WSW 24 30 13 16 1012.9 - -
04/12:50pm 19.8 17.0 12.6 63 4.1 W 19 28 10 15 1013.2 - -
04/12:40pm 19.7 16.9 12.5 63 4.0 W 19 26 10 14 1013.2 - -
04/12:20pm 19.8 16.8 12.5 62 4.1 W 20 24 11 13 1013.4 - -
04/12:10pm 19.6 16.6 12.4 63 4.0 W 20 28 11 15 1013.5 - -
04/12:00pm 19.7 16.6 12.2 62 4.2 W 20 28 11 15 1013.5 - -
04/11:50am 19.8 16.2 12.0 60 4.3 W 22 28 12 15 1013.5 - -
04/11:40am 19.8 16.8 12.5 62 4.1 W 20 28 11 15 1013.5 - -
04/11:30am 19.9 16.8 12.3 61 4.3 W 20 26 11 14 1013.4 - -
04/11:20am 20.0 16.8 12.0 60 4.5 W 20 26 11 14 1013.4 - -
04/11:10am 20.0 16.8 12.0 60 4.5 W 20 24 11 13 1013.4 - -
04/11:00am 19.7 16.5 11.9 60 4.3 W 20 28 11 15 1013.4 - -
04/10:50am 19.8 16.6 11.9 60 4.4 W 20 24 11 13 1013.5 - -
04/10:40am 19.8 16.8 12.1 61 4.3 W 19 24 10 13 1013.7 - -
04/10:30am 19.8 16.9 12.2 61 4.2 W 19 24 10 13 1013.9 - -
04/10:20am 19.3 16.5 12.5 64 3.8 W 19 24 10 13 1014.0 - -
04/10:10am 19.4 16.3 12.3 63 4.0 W 20 24 11 13 1014.0 - -
04/10:00am 19.7 16.6 12.2 62 4.2 WSW 20 24 11 13 1013.9 - -
04/09:50am 20.0 17.2 12.5 62 4.2 WSW 19 24 10 13 1013.9 - -
04/09:40am 20.1 17.7 12.5 61 4.3 W 17 22 9 12 1013.9 - -
04/09:30am 19.6 16.7 12.2 62 4.1 W 19 22 10 12 1013.9 - -
04/09:20am 18.7 16.1 12.0 65 3.7 W 17 22 9 12 1013.9 - -
04/09:10am 18.8 15.8 11.8 64 3.9 W 19 24 10 13 1013.9 - -
04/09:00am 19.1 16.3 12.5 65 3.7 WSW 19 24 10 13 1013.8 - -
04/08:50am 18.6 16.2 12.6 68 3.4 W 17 20 9 11 1013.7 - -
04/08:40am 18.1 15.7 12.5 70 3.1 WSW 17 22 9 12 1013.6 - -
04/08:30am 17.5 14.6 12.2 71 2.9 WSW 19 22 10 12 1013.5 - -
04/08:20am 17.4 14.4 12.1 71 2.9 WSW 19 24 10 13 1013.4 - -
04/08:10am 17.4 14.5 12.2 71 2.9 WSW 19 22 10 12 1013.3 - -
04/08:00am 17.5 14.6 12.3 71 2.9 WSW 19 24 10 13 1013.2 - -
04/07:50am 17.6 14.6 12.5 72 2.8 WSW 20 24 11 13 1013.2 - -
04/07:40am 17.6 15.2 12.5 72 2.8 WSW 17 22 9 12 1013.1 - -
04/07:30am 17.7 14.9 12.5 71 2.9 WSW 19 22 10 12 1013.1 - -
04/07:20am 17.3 14.4 12.2 72 2.8 WSW 19 24 10 13 1013.1 - -
04/07:10am 17.2 14.2 12.1 72 2.8 WSW 19 24 10 13 1013.1 - -
04/07:00am 17.0 14.0 12.0 72 2.7 WSW 19 24 10 13 1013.0 - -
04/06:50am 16.9 13.7 11.9 72 2.7 WSW 20 24 11 13 1013.0 - -
04/06:40am 17.0 14.0 11.9 72 2.8 WSW 19 24 10 13 1012.9 - -
04/06:30am 16.9 14.2 11.7 71 2.8 SW 17 22 9 12 1012.9 - -
04/06:20am 16.8 13.7 11.5 71 2.9 SW 19 24 10 13 1013.0 - -
04/06:10am 17.1 14.1 12.0 72 2.8 SW 19 24 10 13 1012.9 - -
04/06:00am 17.2 14.6 12.1 72 2.8 WSW 17 20 9 11 1013.0 - -
04/05:50am 17.1 15.3 12.0 72 2.8 WSW 13 19 7 10 1013.1 - -
04/05:40am 17.1 15.3 12.0 72 2.8 WSW 13 17 7 9 1013.1 - -
04/05:30am 17.2 15.7 12.0 71 2.9 WSW 11 13 6 7 1013.1 - -
04/05:20am 17.2 15.7 12.0 71 2.9 WSW 11 17 6 9 1013.1 - -
04/05:10am 17.2 16.1 11.9 71 2.9 WSW 9 13 5 7 1013.2 - -
04/05:00am 17.3 16.2 12.0 71 2.9 WSW 9 13 5 7 1013.2 - -
04/04:50am 17.1 16.3 11.8 71 2.9 W 7 15 4 8 1013.2 - -
04/04:40am 17.2 16.4 11.8 70 3.0 W 7 11 4 6 1013.3 - -
04/04:30am 17.2 16.1 11.8 70 3.0 W 9 11 5 6 1013.4 - -
04/04:20am 17.1 15.9 11.6 70 3.0 W 9 11 5 6 1013.5 - -
04/04:10am 17.1 16.3 11.6 70 3.0 W 7 9 4 5 1013.6 - -
04/04:00am 17.1 16.2 11.5 69 3.0 W 7 13 4 7 1013.7 - -
04/03:50am 17.1 16.2 11.5 69 3.0 W 7 9 4 5 1013.8 - -
04/03:40am 17.0 16.3 11.3 69 3.1 W 6 11 3 6 1013.9 - -
04/03:30am 17.0 16.2 11.1 68 3.2 W 6 9 3 5 1014.1 - -
04/03:20am 17.1 16.3 11.0 67 3.3 W 6 9 3 5 1014.2 - -
04/03:10am 17.2 16.4 10.9 66 3.4 W 6 9 3 5 1014.4 - -

Other Formats:

Comma delimited format used in spreadsheet applications
http://www.bom.gov.au/fwo/IDV60801/IDV60801.55039.axf

JavaScript Object Notation format (JSON) in row-major order
http://www.bom.gov.au/fwo/IDV60801/IDV60801.55039.json